| time (UTC) | temp C | wind direction | speed KPH | gust KPH | rain 1hr cm | rain 24hr cm | rain mn cm | humidity % | barometer mb |
| 20260906222653 | 25 | 32 | 0.0 | 1.6 | 0.00 | 0.00 | 0.00 | 48 | 1024.8 |
| 20260906222152 | 25 | 81 | 0.0 | 0.0 | 0.00 | 0.00 | 0.00 | 46 | 1024.8 |
| 20260906221650 | 25 | 80 | 0.0 | 0.0 | 0.00 | 0.00 | 0.00 | 45 | 1024.8 |
| 20260906221144 | 25 | 91 | 0.0 | 0.0 | 0.00 | 0.00 | 0.00 | 45 | 1024.7 |
| 20260906220640 | 25 | 47 | 0.0 | 1.6 | 0.00 | 0.00 | 0.00 | 45 | 1024.4 |
| 20260906220136 | 25 | 47 | 0.0 | 0.0 | 0.00 | 0.00 | 0.00 | 44 | 1024.7 |
| 20260906215634 | 25 | 47 | 0.0 | 0.0 | 0.00 | 0.00 | 0.00 | 45 | 1024.8 |
| 20260906215133 | 25 | 47 | 0.0 | 1.6 | 0.00 | 0.00 | 0.00 | 45 | 1024.8 |
| 20260906214632 | 26 | 38 | 1.6 | 3.2 | 0.00 | 0.00 | 0.00 | 44 | 1024.9 |
| 20260906214127 | 26 | 36 | 3.2 | 4.8 | 0.00 | 0.00 | 0.00 | 43 | 1024.9 |
| 20260906213626 | 26 | 54 | 0.0 | 1.6 | 0.00 | 0.00 | 0.00 | 43 | 1025.3 |
| 20260906213120 | 26 | 36 | 0.0 | 1.6 | 0.00 | 0.00 | 0.00 | 44 | 1024.9 |
| 20260906212618 | 26 | 49 | 1.6 | 1.6 | 0.00 | 0.00 | 0.00 | 44 | 1024.8 |
| 20260906212114 | 26 | 119 | 0.0 | 1.6 | 0.00 | 0.00 | 0.00 | 44 | 1025.3 |
| 20260906211613 | 26 | 240 | 1.6 | 1.6 | 0.00 | 0.00 | 0.00 | 44 | 1025.1 |
| 20260906211109 | 26 | 70 | 0.0 | 3.2 | 0.00 | 0.00 | 0.00 | 43 | 1025.3 |
| 20260906210605 | 26 | 67 | 0.0 | 1.6 | 0.00 | 0.00 | 0.00 | 42 | 1025.5 |
| 20260906210059 | 26 | 21 | 1.6 | 3.2 | 0.00 | 0.00 | 0.00 | 42 | 1025.5 |
| 20260906205554 | 25 | 47 | 0.0 | 1.6 | 0.00 | 0.00 | 0.00 | 45 | 1025.8 |
| 20260906205051 | 25 | 61 | 0.0 | 0.0 | 0.00 | 0.00 | 0.00 | 45 | 1025.6 |
| 20260906204550 | 25 | 254 | 1.6 | 3.2 | 0.00 | 0.00 | 0.00 | 45 | 1025.5 |
| 20260906204045 | 25 | 7 | 1.6 | 3.2 | 0.00 | 0.00 | 0.00 | 43 | 1025.5 |
| 20260906203544 | 25 | 81 | 1.6 | 3.2 | 0.00 | 0.00 | 0.00 | 42 | 1025.6 |
| 20260906203039 | 25 | 333 | 1.6 | 3.2 | 0.00 | 0.00 | 0.00 | 42 | 1025.6 |
| 20260906202536 | 25 | 341 | 3.2 | 4.8 | 0.00 | 0.00 | 0.00 | 43 | 1025.6 |
| 20260906202031 | 25 | 10 | 3.2 | 9.7 | 0.00 | 0.00 | 0.00 | 42 | 1025.8 |
| 20260906201530 | 26 | 58 | 0.0 | 8.0 | 0.00 | 0.00 | 0.00 | 43 | 1025.8 |
| 20260906201030 | 26 | 8 | 3.2 | 9.7 | 0.00 | 0.00 | 0.00 | 43 | 1025.8 |
| 20260906200526 | 26 | 65 | 0.0 | 3.2 | 0.00 | 0.00 | 0.00 | 43 | 1025.5 |
| 20260906200022 | 26 | 33 | 4.8 | 8.0 | 0.00 | 0.00 | 0.00 | 42 | 1025.5 |
| 20260906195517 | 26 | 88 | 0.0 | 3.2 | 0.00 | 0.00 | 0.00 | 40 | 1025.6 |
| 20260906195014 | 27 | 12 | 8.0 | 11.3 | 0.00 | 0.00 | 0.00 | 41 | 1025.5 |
| 20260906194509 | 26 | 311 | 1.6 | 8.0 | 0.00 | 0.00 | 0.00 | 37 | 1025.8 |
| 20260906194005 | 26 | 63 | 0.0 | 1.6 | 0.00 | 0.00 | 0.00 | 38 | 1025.6 |
| 20260906193504 | 27 | 58 | 1.6 | 8.0 | 0.00 | 0.00 | 0.00 | 37 | 1025.6 |
| 20260906193000 | 27 | 186 | 1.6 | 4.8 | 0.00 | 0.00 | 0.00 | 36 | 1025.9 |
| 20260906192455 | 27 | 156 | 1.6 | 4.8 | 0.00 | 0.00 | 0.00 | 36 | 1026.0 |
| 20260906191954 | 26 | 85 | 1.6 | 14.5 | 0.00 | 0.00 | 0.00 | 36 | 1026.0 |
| 20260906191449 | 27 | 6 | 3.2 | 8.0 | 0.00 | 0.00 | 0.00 | 36 | 1026.1 |
| 20260906190948 | 27 | 344 | 6.4 | 9.7 | 0.00 | 0.00 | 0.00 | 36 | 1026.1 |
| 20260906190447 | 27 | 96 | 0.0 | 9.7 | 0.00 | 0.00 | 0.00 | 35 | 1026.2 |
| 20260906185942 | 27 | 37 | 4.8 | 4.8 | 0.00 | 0.00 | 0.00 | 35 | 1026.1 |
| 20260906185441 | 26 | 276 | 4.8 | 11.3 | 0.00 | 0.00 | 0.00 | 37 | 1026.1 |
| 20260906184940 | 26 | 358 | 8.0 | 11.3 | 0.00 | 0.00 | 0.00 | 37 | 1026.2 |
| 20260906184436 | 26 | 14 | 4.8 | 8.0 | 0.00 | 0.00 | 0.00 | 36 | 1026.4 |
| 20260906183931 | 26 | 314 | 4.8 | 8.0 | 0.00 | 0.00 | 0.00 | 37 | 1026.5 |
| 20260906183427 | 26 | 312 | 1.6 | 3.2 | 0.00 | 0.00 | 0.00 | 39 | 1026.5 |
| 20260906182922 | 26 | 62 | 1.6 | 3.2 | 0.00 | 0.00 | 0.00 | 37 | 1026.7 |
| 20260906182418 | 26 | 327 | 6.4 | 9.7 | 0.00 | 0.00 | 0.00 | 37 | 1026.9 |
| 20260906181914 | 26 | 44 | 1.6 | 8.0 | 0.00 | 0.00 | 0.00 | 38 | 1026.9 |
| 20260906181409 | 26 | 348 | 8.0 | 11.3 | 0.00 | 0.00 | 0.00 | 38 | 1027.1 |
| 20260906180905 | 26 | 314 | 6.4 | 9.7 | 0.00 | 0.00 | 0.00 | 38 | 1026.9 |
| 20260906180359 | 26 | 247 | 8.0 | 9.7 | 0.00 | 0.00 | 0.00 | 38 | 1027.0 |
| 20260906175857 | 26 | 31 | 3.2 | 9.7 | 0.00 | 0.00 | 0.00 | 37 | 1027.0 |
| 20260906175352 | 26 | 354 | 4.8 | 4.8 | 0.00 | 0.00 | 0.00 | 38 | 1027.5 |
| 20260906174851 | 25 | 161 | 4.8 | 12.9 | 0.00 | 0.00 | 0.00 | 39 | 1027.5 |
| 20260906174350 | 25 | 290 | 4.8 | 8.0 | 0.00 | 0.00 | 0.00 | 40 | 1027.5 |
| 20260906173845 | 26 | 286 | 3.2 | 8.0 | 0.00 | 0.00 | 0.00 | 41 | 1027.6 |
| 20260906173341 | 25 | 205 | 3.2 | 8.0 | 0.00 | 0.00 | 0.00 | 40 | 1027.5 |
| 20260906172840 | 25 | 22 | 3.2 | 8.0 | 0.00 | 0.00 | 0.00 | 41 | 1027.6 |
| 20260906172337 | 25 | 307 | 3.2 | 9.7 | 0.00 | 0.00 | 0.00 | 41 | 1027.7 |
| 20260906171832 | 25 | 2 | 8.0 | 12.9 | 0.00 | 0.00 | 0.00 | 41 | 1027.7 |
| 20260906171326 | 25 | 64 | 0.0 | 3.2 | 0.00 | 0.00 | 0.00 | 41 | 1027.6 |
| 20260906170822 | 25 | 16 | 3.2 | 9.7 | 0.00 | 0.00 | 0.00 | 42 | 1027.8 |
| 20260906170318 | 25 | 77 | 0.0 | 4.8 | 0.00 | 0.00 | 0.00 | 44 | 1027.9 |
| 20260906165814 | 25 | 65 | 3.2 | 8.0 | 0.00 | 0.00 | 0.00 | 44 | 1028.1 |
| 20260906165314 | 25 | 358 | 4.8 | 11.3 | 0.00 | 0.00 | 0.00 | 45 | 1027.8 |
| 20260906164813 | 25 | 7 | 3.2 | 8.0 | 0.00 | 0.00 | 0.00 | 45 | 1027.5 |
| 20260906164308 | 24 | 65 | 0.0 | 4.8 | 0.00 | 0.00 | 0.00 | 47 | 1027.6 |
| 20260906163804 | 24 | 55 | 0.0 | 3.2 | 0.00 | 0.00 | 0.00 | 49 | 1027.7 |
| 20260906163301 | 25 | 154 | 3.2 | 3.2 | 0.00 | 0.00 | 0.00 | 47 | 1027.8 |
| 20260906162757 | 24 | 29 | 3.2 | 3.2 | 0.00 | 0.00 | 0.00 | 49 | 1027.9 |
| 20260906162251 | 24 | 53 | 0.0 | 3.2 | 0.00 | 0.00 | 0.00 | 51 | 1027.8 |
| 20260906161746 | 24 | 26 | 4.8 | 9.7 | 0.00 | 0.00 | 0.00 | 51 | 1027.7 |
| 20260906161245 | 23 | 29 | 1.6 | 9.7 | 0.00 | 0.00 | 0.00 | 52 | 1027.8 |
| 20260906160744 | 23 | 67 | 0.0 | 3.2 | 0.00 | 0.00 | 0.00 | 52 | 1028.2 |
| 20260906160244 | 24 | 29 | 4.8 | 11.3 | 0.00 | 0.00 | 0.00 | 52 | 1027.8 |
| 20260906155741 | 23 | 65 | 1.6 | 1.6 | 0.00 | 0.00 | 0.00 | 50 | 1027.9 |
| 20260906155236 | 23 | 275 | 3.2 | 3.2 | 0.00 | 0.00 | 0.00 | 51 | 1027.7 |
| 20260906154732 | 23 | 31 | 0.0 | 4.8 | 0.00 | 0.00 | 0.00 | 51 | 1027.7 |
| 20260906154227 | 23 | 303 | 3.2 | 4.8 | 0.00 | 0.00 | 0.00 | 50 | 1027.5 |
| 20260906153725 | 23 | 51 | 0.0 | 3.2 | 0.00 | 0.00 | 0.00 | 51 | 1027.5 |
| 20260906153220 | 23 | 49 | 1.6 | 3.2 | 0.00 | 0.00 | 0.00 | 50 | 1027.5 |
| 20260906152714 | 22 | 25 | 4.8 | 4.8 | 0.00 | 0.00 | 0.00 | 49 | 1027.6 |
| 20260906152210 | 23 | 47 | 1.6 | 3.2 | 0.00 | 0.00 | 0.00 | 48 | 1027.7 |
| 20260906151703 | 22 | 64 | 0.0 | 1.6 | 0.00 | 0.00 | 0.00 | 47 | 1027.7 |
| 20260906151200 | 22 | 64 | 1.6 | 1.6 | 0.00 | 0.00 | 0.00 | 47 | 1027.9 |
| 20260906150655 | 21 | 61 | 0.0 | 3.2 | 0.00 | 0.00 | 0.00 | 53 | 1027.9 |
| 20260906150150 | 21 | 74 | 0.0 | 1.6 | 0.00 | 0.00 | 0.00 | 54 | 1027.8 |
| 20260906145648 | 20 | 6 | 3.2 | 4.8 | 0.00 | 0.00 | 0.00 | 55 | 1027.8 |
| 20260906145143 | 20 | 36 | 1.6 | 3.2 | 0.00 | 0.00 | 0.00 | 54 | 1027.9 |
| 20260906144637 | 18 | 81 | 0.0 | 0.0 | 0.00 | 0.00 | 0.00 | 56 | 1027.8 |
| 20260906144138 | 17 | 71 | 0.0 | 1.6 | 0.00 | 0.00 | 0.00 | 58 | 1028.2 |
| 20260906143637 | 17 | 121 | 1.6 | 1.6 | 0.00 | 0.00 | 0.00 | 61 | 1027.9 |
| 20260906143135 | 16 | 193 | 1.6 | 1.6 | 0.00 | 0.00 | 0.00 | 61 | 1028.1 |
| 20260906142633 | 17 | 149 | 1.6 | 1.6 | 0.00 | 0.00 | 0.00 | 60 | 1027.9 |
| 20260906142129 | 17 | 57 | 0.0 | 0.0 | 0.00 | 0.00 | 0.00 | 59 | 1027.8 |
| 20260906141627 | 17 | 40 | 0.0 | 0.0 | 0.00 | 0.00 | 0.00 | 59 | 1027.6 |
| 20260906141123 | 16 | 128 | 0.0 | 1.6 | 0.00 | 0.00 | 0.00 | 60 | 1027.8 |
| 20260906140623 | 16 | 198 | 1.6 | 1.6 | 0.00 | 0.00 | 0.00 | 61 | 1027.6 |
| 20260906140123 | 15 | 227 | 1.6 | 1.6 | 0.00 | 0.00 | 0.00 | 63 | 1027.6 |
| 20260906135619 | 15 | 203 | 1.6 | 1.6 | 0.00 | 0.00 | 0.00 | 64 | 1028.1 |
| 20260906135116 | 15 | 215 | 0.0 | 1.6 | 0.00 | 0.00 | 0.00 | 65 | 1027.6 |
| 20260906134611 | 14 | 217 | 1.6 | 1.6 | 0.00 | 0.00 | 0.00 | 65 | 1027.9 |
| 20260906134106 | 14 | 194 | 1.6 | 1.6 | 0.00 | 0.00 | 0.00 | 67 | 1027.9 |
| 20260906133602 | 14 | 136 | 1.6 | 1.6 | 0.00 | 0.00 | 0.00 | 68 | 1027.8 |
| 20260906133057 | 13 | 156 | 0.0 | 1.6 | 0.00 | 0.00 | 0.00 | 68 | 1027.8 |
| 20260906132552 | 13 | 152 | 1.6 | 1.6 | 0.00 | 0.00 | 0.00 | 69 | 1028.1 |
| 20260906132048 | 13 | 139 | 0.0 | 1.6 | 0.00 | 0.00 | 0.00 | 70 | 1027.5 |
| 20260906131543 | 13 | 210 | 1.6 | 1.6 | 0.00 | 0.00 | 0.00 | 69 | 1027.8 |
| 20260906131038 | 13 | 120 | 0.0 | 1.6 | 0.00 | 0.00 | 0.00 | 68 | 1027.7 |
| 20260906130537 | 13 | 116 | 0.0 | 0.0 | 0.00 | 0.00 | 0.00 | 68 | 1027.7 |
| 20260906130033 | 13 | 111 | 0.0 | 1.6 | 0.00 | 0.00 | 0.00 | 68 | 1027.7 |
| 20260906125531 | 13 | 127 | 0.0 | 1.6 | 0.00 | 0.00 | 0.00 | 67 | 1027.7 |
| 20260906125031 | 13 | 147 | 0.0 | 1.6 | 0.00 | 0.00 | 0.00 | 67 | 1027.6 |
| 20260906124526 | 13 | 187 | 1.6 | 1.6 | 0.00 | 0.00 | 0.00 | 67 | 1027.6 |
| 20260906124021 | 13 | 120 | 0.0 | 0.0 | 0.00 | 0.00 | 0.00 | 67 | 1027.6 |
| 20260906123520 | 13 | 218 | 1.6 | 1.6 | 0.00 | 0.00 | 0.00 | 67 | 1027.5 |
| 20260906123015 | 13 | 203 | 0.0 | 1.6 | 0.00 | 0.00 | 0.00 | 67 | 1027.5 |
| 20260906122509 | 13 | 136 | 0.0 | 1.6 | 0.00 | 0.00 | 0.00 | 67 | 1027.2 |
| 20260906122006 | 13 | 105 | 0.0 | 0.0 | 0.00 | 0.00 | 0.00 | 67 | 1027.3 |
| 20260906121502 | 13 | 123 | 0.0 | 1.6 | 0.00 | 0.00 | 0.00 | 66 | 1027.6 |
| 20260906120958 | 13 | 126 | 0.0 | 0.0 | 0.00 | 0.00 | 0.00 | 66 | 1027.2 |
| 20260906120453 | 13 | 85 | 0.0 | 0.0 | 0.00 | 0.00 | 0.00 | 66 | 1027.5 |
| 20260906115949 | 13 | 201 | 0.0 | 1.6 | 0.00 | 0.00 | 0.00 | 66 | 1027.2 |
| 20260906115444 | 13 | 206 | 0.0 | 1.6 | 0.00 | 0.00 | 0.00 | 66 | 1027.3 |
| 20260906114944 | 13 | 311 | 1.6 | 1.6 | 0.00 | 0.00 | 0.00 | 66 | 1027.3 |
| 20260906114438 | 13 | 315 | 0.0 | 0.0 | 0.00 | 0.00 | 0.00 | 66 | 1027.3 |
| 20260906113935 | 13 | 291 | 0.0 | 0.0 | 0.00 | 0.00 | 0.00 | 65 | 1027.6 |
| 20260906113433 | 13 | 256 | 0.0 | 1.6 | 0.00 | 0.00 | 0.00 | 65 | 1027.2 |
| 20260906112929 | 13 | 249 | 0.0 | 0.0 | 0.00 | 0.00 | 0.00 | 65 | 1027.2 |
| 20260906112424 | 13 | 249 | 0.0 | 1.6 | 0.00 | 0.00 | 0.00 | 65 | 1027.2 |
| 20260906111920 | 13 | 206 | 1.6 | 1.6 | 0.00 | 0.00 | 0.00 | 64 | 1027.5 |
| 20260906111419 | 13 | 125 | 0.0 | 1.6 | 0.00 | 0.00 | 0.00 | 64 | 1027.5 |
| 20260906110914 | 13 | 203 | 0.0 | 1.6 | 0.00 | 0.00 | 0.00 | 62 | 1027.3 |
| 20260906110409 | 14 | 139 | 0.0 | 1.6 | 0.00 | 0.00 | 0.00 | 63 | 1027.2 |
| 20260906105909 | 14 | 207 | 0.0 | 1.6 | 0.00 | 0.00 | 0.00 | 62 | 1027.2 |
| 20260906105404 | 14 | 213 | 1.6 | 1.6 | 0.00 | 0.00 | 0.00 | 62 | 1027.3 |
| 20260906104900 | 14 | 244 | 1.6 | 1.6 | 0.00 | 0.00 | 0.00 | 62 | 1027.5 |
| 20260906104359 | 14 | 213 | 1.6 | 1.6 | 0.00 | 0.00 | 0.00 | 62 | 1027.3 |
| 20260906103857 | 15 | 83 | 0.0 | 1.6 | 0.00 | 0.00 | 0.00 | 61 | 1027.5 |
| 20260906103356 | 15 | 238 | 1.6 | 3.2 | 0.00 | 0.00 | 0.00 | 61 | 1027.3 |
| 20260906102852 | 15 | 116 | 0.0 | 1.6 | 0.00 | 0.00 | 0.00 | 61 | 1027.3 |
| 20260906102351 | 15 | 235 | 1.6 | 3.2 | 0.00 | 0.00 | 0.00 | 61 | 1027.5 |
| 20260906101846 | 15 | 216 | 1.6 | 1.6 | 0.00 | 0.00 | 0.00 | 61 | 1027.6 |
| 20260906101341 | 15 | 125 | 0.0 | 1.6 | 0.00 | 0.00 | 0.00 | 61 | 1027.6 |
| 20260906100837 | 15 | 107 | 0.0 | 0.0 | 0.00 | 0.00 | 0.00 | 60 | 1027.2 |
| 20260906100336 | 15 | 83 | 0.0 | 0.0 | 0.00 | 0.00 | 0.00 | 60 | 1027.5 |
| 20260906095831 | 15 | 213 | 0.0 | 3.2 | 0.00 | 0.00 | 0.00 | 60 | 1027.3 |
| 20260906095327 | 15 | 345 | 1.6 | 1.6 | 0.00 | 0.00 | 0.00 | 60 | 1027.1 |
| 20260906094826 | 15 | 320 | 1.6 | 1.6 | 0.00 | 0.00 | 0.00 | 60 | 1027.1 |
| 20260906094321 | 15 | 222 | 1.6 | 1.6 | 0.00 | 0.00 | 0.00 | 60 | 1027.0 |
| 20260906093817 | 15 | 206 | 1.6 | 1.6 | 0.00 | 0.00 | 0.00 | 59 | 1027.5 |
| 20260906093313 | 16 | 160 | 1.6 | 1.6 | 0.00 | 0.00 | 0.00 | 59 | 1027.3 |
| 20260906092808 | 16 | 142 | 1.6 | 1.6 | 0.00 | 0.00 | 0.00 | 57 | 1027.6 |
| 20260906092305 | 16 | 133 | 0.0 | 1.6 | 0.00 | 0.00 | 0.00 | 57 | 1027.5 |
| 20260906091758 | 16 | 240 | 1.6 | 1.6 | 0.00 | 0.00 | 0.00 | 57 | 1027.3 |
| 20260906091254 | 16 | 161 | 0.0 | 1.6 | 0.00 | 0.00 | 0.00 | 57 | 1027.0 |
| 20260906090750 | 16 | 228 | 3.2 | 3.2 | 0.00 | 0.00 | 0.00 | 57 | 1027.0 |
| 20260906090249 | 16 | 256 | 1.6 | 1.6 | 0.00 | 0.00 | 0.00 | 56 | 1027.2 |
| 20260906085749 | 16 | 227 | 1.6 | 1.6 | 0.00 | 0.00 | 0.00 | 57 | 1027.0 |
| 20260906085248 | 16 | 201 | 1.6 | 3.2 | 0.00 | 0.00 | 0.00 | 56 | 1027.1 |
| 20260906084742 | 16 | 211 | 1.6 | 1.6 | 0.00 | 0.00 | 0.00 | 56 | 1027.0 |
| 20260906084241 | 16 | 212 | 1.6 | 1.6 | 0.00 | 0.00 | 0.00 | 56 | 1027.0 |
| 20260906083737 | 16 | 185 | 1.6 | 1.6 | 0.00 | 0.00 | 0.00 | 56 | 1026.9 |
| 20260906083232 | 17 | 178 | 1.6 | 1.6 | 0.00 | 0.00 | 0.00 | 56 | 1027.0 |
| 20260906082727 | 17 | 205 | 1.6 | 1.6 | 0.00 | 0.00 | 0.00 | 56 | 1027.0 |
| 20260906082222 | 17 | 227 | 1.6 | 1.6 | 0.00 | 0.00 | 0.00 | 55 | 1027.0 |
| 20260906081718 | 17 | 219 | 1.6 | 1.6 | 0.00 | 0.00 | 0.00 | 55 | 1027.1 |
| 20260906081213 | 17 | 189 | 1.6 | 1.6 | 0.00 | 0.00 | 0.00 | 55 | 1027.0 |
| 20260906080710 | 17 | 142 | 1.6 | 3.2 | 0.00 | 0.00 | 0.00 | 55 | 1027.1 |
| 20260906080206 | 17 | 254 | 1.6 | 1.6 | 0.00 | 0.00 | 0.00 | 55 | 1027.1 |
| 20260906075705 | 17 | 255 | 1.6 | 1.6 | 0.00 | 0.00 | 0.00 | 55 | 1027.2 |
| 20260906075200 | 17 | 153 | 1.6 | 3.2 | 0.00 | 0.00 | 0.00 | 54 | 1027.3 |
| 20260906074655 | 17 | 258 | 1.6 | 3.2 | 0.00 | 0.00 | 0.00 | 55 | 1027.1 |
| 20260906074149 | 17 | 88 | 0.0 | 1.6 | 0.00 | 0.00 | 0.00 | 55 | 1027.3 |
| 20260906073644 | 17 | 202 | 1.6 | 1.6 | 0.00 | 0.00 | 0.00 | 54 | 1027.3 |
| 20260906073139 | 17 | 213 | 1.6 | 1.6 | 0.00 | 0.00 | 0.00 | 54 | 1027.2 |
| 20260906072634 | 17 | 155 | 1.6 | 1.6 | 0.00 | 0.00 | 0.00 | 54 | 1027.2 |
| 20260906072130 | 17 | 132 | 0.0 | 1.6 | 0.00 | 0.00 | 0.00 | 54 | 1027.5 |
| 20260906071627 | 18 | 86 | 0.0 | 0.0 | 0.00 | 0.00 | 0.00 | 53 | 1027.2 |
| 20260906071126 | 18 | 132 | 0.0 | 1.6 | 0.00 | 0.00 | 0.00 | 53 | 1027.2 |
| 20260906070623 | 18 | 103 | 0.0 | 1.6 | 0.00 | 0.00 | 0.00 | 52 | 1027.1 |
| 20260906070119 | 18 | 240 | 0.0 | 1.6 | 0.00 | 0.00 | 0.00 | 52 | 1027.1 |
| 20260906065618 | 19 | 224 | 1.6 | 1.6 | 0.00 | 0.00 | 0.00 | 51 | 1027.2 |
| 20260906065113 | 19 | 208 | 1.6 | 3.2 | 0.00 | 0.00 | 0.00 | 50 | 1027.2 |
| 20260906064603 | 20 | 151 | 1.6 | 1.6 | 0.00 | 0.00 | 0.00 | 50 | 1027.2 |
| 20260906064058 | 20 | 154 | 1.6 | 1.6 | 0.00 | 0.00 | 0.00 | 49 | 1027.2 |
| 20260906063553 | 20 | 213 | 1.6 | 1.6 | 0.00 | 0.00 | 0.00 | 49 | 1027.3 |
| 20260906063049 | 20 | 74 | 0.0 | 1.6 | 0.00 | 0.00 | 0.00 | 48 | 1027.3 |
| 20260906062544 | 20 | 43 | 0.0 | 0.0 | 0.00 | 0.00 | 0.00 | 47 | 1027.2 |
| 20260906062038 | 20 | 143 | 0.0 | 1.6 | 0.00 | 0.00 | 0.00 | 47 | 1027.1 |
| 20260906061535 | 20 | 165 | 1.6 | 1.6 | 0.00 | 0.00 | 0.00 | 48 | 1027.1 |
| 20260906061034 | 20 | 241 | 1.6 | 3.2 | 0.00 | 0.00 | 0.00 | 48 | 1027.5 |
| 20260906060531 | 20 | 132 | 0.0 | 1.6 | 0.00 | 0.00 | 0.00 | 48 | 1027.5 |
| 20260906060028 | 20 | 161 | 1.6 | 1.6 | 0.00 | 0.00 | 0.00 | 47 | 1027.8 |
| 20260906055523 | 20 | 247 | 1.6 | 1.6 | 0.00 | 0.00 | 0.00 | 47 | 1027.7 |
| 20260906055018 | 21 | 224 | 1.6 | 1.6 | 0.00 | 0.00 | 0.00 | 46 | 1027.9 |
| 20260906054513 | 21 | 127 | 1.6 | 1.6 | 0.00 | 0.00 | 0.00 | 45 | 1028.1 |
| 20260906054008 | 22 | 110 | 0.0 | 1.6 | 0.00 | 0.00 | 0.00 | 43 | 1027.9 |
| 20260906053504 | 22 | 251 | 1.6 | 1.6 | 0.00 | 0.00 | 0.00 | 42 | 1027.9 |
| 20260906053000 | 22 | 240 | 4.8 | 4.8 | 0.00 | 0.00 | 0.00 | 41 | 1028.2 |
| 20260906052455 | 22 | 233 | 1.6 | 3.2 | 0.00 | 0.00 | 0.00 | 41 | 1028.4 |
| 20260906051952 | 22 | 271 | 1.6 | 4.8 | 0.00 | 0.00 | 0.00 | 42 | 1028.1 |
| 20260906051447 | 22 | 21 | 3.2 | 4.8 | 0.00 | 0.00 | 0.00 | 43 | 1027.8 |
| 20260906050943 | 22 | 258 | 0.0 | 1.6 | 0.00 | 0.00 | 0.00 | 43 | 1027.8 |
| 20260906050442 | 22 | 36 | 0.0 | 1.6 | 0.00 | 0.00 | 0.00 | 42 | 1027.5 |
| 20260906045942 | 22 | 52 | 0.0 | 1.6 | 0.00 | 0.00 | 0.00 | 42 | 1027.7 |
| 20260906045441 | 22 | 338 | 0.0 | 0.0 | 0.00 | 0.00 | 0.00 | 42 | 1027.3 |
| 20260906044937 | 22 | 254 | 1.6 | 1.6 | 0.00 | 0.00 | 0.00 | 41 | 1027.1 |
| 20260906044432 | 23 | 233 | 3.2 | 3.2 | 0.00 | 0.00 | 0.00 | 41 | 1027.2 |
| 20260906043927 | 23 | 177 | 4.8 | 4.8 | 0.00 | 0.00 | 0.00 | 41 | 1026.9 |
| 20260906043423 | 23 | 233 | 6.4 | 11.3 | 0.00 | 0.00 | 0.00 | 38 | 1026.9 |
| 20260906042919 | 23 | 173 | 0.0 | 3.2 | 0.00 | 0.00 | 0.00 | 39 | 1026.9 |
| 20260906042418 | 23 | 206 | 1.6 | 4.8 | 0.00 | 0.00 | 0.00 | 39 | 1026.6 |
| 20260906041913 | 23 | 121 | 3.2 | 9.7 | 0.00 | 0.00 | 0.00 | 39 | 1027.0 |
| 20260906041409 | 23 | 233 | 4.8 | 8.0 | 0.00 | 0.00 | 0.00 | 39 | 1026.9 |
| 20260906040909 | 23 | 277 | 3.2 | 9.7 | 0.00 | 0.00 | 0.00 | 38 | 1027.1 |
| 20260906040404 | 23 | 206 | 1.6 | 12.9 | 0.00 | 0.00 | 0.00 | 39 | 1027.0 |
| 20260906035859 | 23 | 279 | 8.0 | 24.1 | 0.00 | 0.00 | 0.00 | 38 | 1027.0 |
| 20260906035354 | 23 | 276 | 4.8 | 9.7 | 0.00 | 0.00 | 0.00 | 38 | 1027.2 |
| 20260906034850 | 23 | 226 | 3.2 | 4.8 | 0.00 | 0.00 | 0.00 | 38 | 1027.1 |
| 20260906034344 | 22 | 225 | 6.4 | 12.9 | 0.00 | 0.00 | 0.00 | 38 | 1026.6 |
| 20260906033840 | 22 | 120 | 6.4 | 8.0 | 0.00 | 0.00 | 0.00 | 38 | 1026.9 |
| 20260906033339 | 22 | 130 | 1.6 | 1.6 | 0.00 | 0.00 | 0.00 | 40 | 1026.6 |
| 20260906032836 | 22 | 240 | 1.6 | 1.6 | 0.00 | 0.00 | 0.00 | 38 | 1026.4 |
| 20260906032331 | 23 | 56 | 0.0 | 3.2 | 0.00 | 0.00 | 0.00 | 37 | 1026.4 |
| 20260906031826 | 23 | 116 | 0.0 | 3.2 | 0.00 | 0.00 | 0.00 | 37 | 1026.6 |
| 20260906031322 | 23 | 248 | 3.2 | 8.0 | 0.00 | 0.00 | 0.00 | 36 | 1026.4 |
| 20260906030821 | 23 | 214 | 1.6 | 9.7 | 0.00 | 0.00 | 0.00 | 36 | 1026.5 |
| 20260906030317 | 23 | 231 | 3.2 | 3.2 | 0.00 | 0.00 | 0.00 | 36 | 1026.5 |
| 20260906025811 | 23 | 317 | 3.2 | 3.2 | 0.00 | 0.00 | 0.00 | 36 | 1026.5 |
| 20260906025306 | 23 | 239 | 4.8 | 8.0 | 0.00 | 0.00 | 0.00 | 36 | 1026.1 |
| 20260906024804 | 23 | 249 | 3.2 | 8.0 | 0.00 | 0.00 | 0.00 | 37 | 1026.0 |
| 20260906024304 | 23 | 177 | 3.2 | 8.0 | 0.00 | 0.00 | 0.00 | 37 | 1026.2 |
| 20260906023759 | 22 | 135 | 4.8 | 8.0 | 0.00 | 0.00 | 0.00 | 38 | 1026.0 |
| 20260906023254 | 22 | 139 | 3.2 | 9.7 | 0.00 | 0.00 | 0.00 | 39 | 1026.0 |
| 20260906022750 | 22 | 249 | 4.8 | 4.8 | 0.00 | 0.00 | 0.00 | 40 | 1026.2 |
| 20260906022245 | 22 | 242 | 4.8 | 8.0 | 0.00 | 0.00 | 0.00 | 39 | 1026.1 |
| 20260906021741 | 22 | 226 | 1.6 | 3.2 | 0.00 | 0.00 | 0.00 | 41 | 1025.9 |
| 20260906021240 | 23 | 206 | 1.6 | 3.2 | 0.00 | 0.00 | 0.00 | 41 | 1026.1 |
| 20260906020734 | 23 | 112 | 1.6 | 3.2 | 0.00 | 0.00 | 0.00 | 40 | 1026.2 |
| 20260906020229 | 23 | 272 | 1.6 | 3.2 | 0.00 | 0.00 | 0.00 | 40 | 1026.1 |
| 20260906015724 | 23 | 82 | 0.0 | 3.2 | 0.00 | 0.00 | 0.00 | 41 | 1026.2 |
| 20260906015222 | 23 | 239 | 4.8 | 4.8 | 0.00 | 0.00 | 0.00 | 40 | 1026.4 |
| 20260906014717 | 25 | 258 | 3.2 | 4.8 | 0.00 | 0.00 | 0.00 | 39 | 1026.4 |
| 20260906014213 | 25 | 203 | 1.6 | 4.8 | 0.00 | 0.00 | 0.00 | 35 | 1026.2 |
| 20260906013709 | 25 | 265 | 1.6 | 9.7 | 0.00 | 0.00 | 0.00 | 35 | 1026.1 |
| 20260906013208 | 25 | 251 | 8.0 | 11.3 | 0.00 | 0.00 | 0.00 | 35 | 1026.0 |
| 20260906012703 | 25 | 282 | 1.6 | 11.3 | 0.00 | 0.00 | 0.00 | 35 | 1026.2 |
| 20260906012157 | 25 | 225 | 1.6 | 8.0 | 0.00 | 0.00 | 0.00 | 36 | 1026.0 |
| 20260906011653 | 25 | 250 | 1.6 | 9.7 | 0.00 | 0.00 | 0.00 | 36 | 1026.2 |
| 20260906011148 | 25 | 238 | 4.8 | 9.7 | 0.00 | 0.00 | 0.00 | 36 | 1025.9 |
| 20260906010637 | 25 | 146 | 1.6 | 3.2 | 0.00 | 0.00 | 0.00 | 36 | 1026.0 |
| 20260906010133 | 24 | 203 | 1.6 | 9.7 | 0.00 | 0.00 | 0.00 | 36 | 1026.2 |
| 20260906005632 | 25 | 207 | 3.2 | 12.9 | 0.00 | 0.00 | 0.00 | 37 | 1026.2 |
| 20260906005127 | 25 | 285 | 3.2 | 3.2 | 0.00 | 0.00 | 0.00 | 37 | 1026.2 |
| 20260906004626 | 25 | 50 | 0.0 | 3.2 | 0.00 | 0.00 | 0.00 | 36 | 1026.2 |
| 20260906004121 | 25 | 222 | 1.6 | 3.2 | 0.00 | 0.00 | 0.00 | 36 | 1026.4 |
| 20260906003616 | 25 | 173 | 0.0 | 1.6 | 0.00 | 0.00 | 0.00 | 36 | 1026.1 |
| 20260906003112 | 25 | 79 | 1.6 | 4.8 | 0.00 | 0.00 | 0.00 | 35 | 1026.4 |
| 20260906002607 | 25 | 124 | 1.6 | 4.8 | 0.00 | 0.00 | 0.00 | 34 | 1026.4 |
| 20260906002101 | 25 | 99 | 0.0 | 4.8 | 0.00 | 0.00 | 0.00 | 35 | 1026.5 |
| 20260906001556 | 25 | 62 | 1.6 | 1.6 | 0.00 | 0.00 | 0.00 | 35 | 1026.6 |
| 20260906001051 | 25 | 248 | 0.0 | 3.2 | 0.00 | 0.00 | 0.00 | 35 | 1026.6 |
| 20260906000547 | 25 | 276 | 1.6 | 4.8 | 0.00 | 0.00 | 0.00 | 35 | 1026.5 |
| 20260906000042 | 25 | 249 | 4.8 | 8.0 | 0.00 | 0.00 | 0.00 | 34 | 1026.4 |
| 20260905235541 | 26 | 249 | 3.2 | 11.3 | 0.00 | 0.00 | 0.00 | 34 | 1026.2 |
| 20260905235036 | 26 | 231 | 9.7 | 12.9 | 0.00 | 0.00 | 0.00 | 33 | 1026.4 |
| 20260905234532 | 27 | 201 | 3.2 | 3.2 | 0.00 | 0.00 | 0.00 | 30 | 1026.2 |
| 20260905234027 | 27 | 45 | 0.0 | 0.0 | 0.00 | 0.00 | 0.00 | 30 | 1026.2 |
| 20260905233522 | 26 | 52 | 0.0 | 3.2 | 0.00 | 0.00 | 0.00 | 30 | 1026.4 |
| 20260905233021 | 26 | 193 | 1.6 | 3.2 | 0.00 | 0.00 | 0.00 | 31 | 1026.2 |
| 20260905232517 | 27 | 270 | 8.0 | 12.9 | 0.00 | 0.00 | 0.00 | 30 | 1026.2 |
| 20260905232013 | 27 | 241 | 1.6 | 3.2 | 0.00 | 0.00 | 0.00 | 30 | 1026.1 |
| 20260905231508 | 27 | 51 | 0.0 | 0.0 | 0.00 | 0.00 | 0.00 | 29 | 1026.0 |
| 20260905231004 | 27 | 38 | 1.6 | 3.2 | 0.00 | 0.00 | 0.00 | 29 | 1025.8 |
| 20260905230503 | 27 | 267 | 4.8 | 12.9 | 0.00 | 0.00 | 0.00 | 29 | 1026.0 |
| 20260905230001 | 28 | 299 | 3.2 | 4.8 | 0.00 | 0.00 | 0.00 | 27 | 1025.8 |
| 20260905225456 | 28 | 79 | 0.0 | 0.0 | 0.00 | 0.00 | 0.00 | 26 | 1025.8 |
| 20260905224951 | 28 | 60 | 0.0 | 1.6 | 0.00 | 0.00 | 0.00 | 26 | 1025.5 |
| 20260905224446 | 28 | 354 | 0.0 | 4.8 | 0.00 | 0.00 | 0.00 | 26 | 1025.4 |
| 20260905223945 | 28 | 340 | 1.6 | 3.2 | 0.00 | 0.00 | 0.00 | 26 | 1025.6 |
| 20260905223443 | 28 | 23 | 1.6 | 3.2 | 0.00 | 0.00 | 0.00 | 26 | 1025.5 |
| 20260905222943 | 28 | 5 | 3.2 | 3.2 | 0.00 | 0.00 | 0.00 | 26 | 1025.4 |